Time;durP1;ratioP1;P1;durP2;ratioP2;P2;SDS_P1;SDS_P2;PMS_P1;PMS_P2;Temp;Humidity;BMP_temperature;BMP_pressure;BME280_temperature;BME280_humidity;BME280_pressure;Samples;Min_cycle;Max_cycle;Signal;HPM_P1;HPM_P2
2021/09/09 04:02:10;;;;;;;19.67;17.87;;;17.30;99.90;;;;;;5243304;22;20491;-62
2021/09/09 04:04:37;;;;;;;20.63;18.77;;;17.40;99.90;;;;;;5035874;28;20452;-62
2021/09/09 04:07:04;;;;;;;20.77;18.83;;;17.40;99.90;;;;;;5035823;28;20463;-62
2021/09/09 04:09:30;;;;;;;21.00;19.10;;;17.40;99.90;;;;;;5036029;28;20784;-63
2021/09/09 04:11:57;;;;;;;19.07;17.50;;;17.50;99.90;;;;;;5035598;28;20506;-62
2021/09/09 04:14:24;;;;;;;23.10;20.50;;;17.60;99.90;;;;;;5035588;28;20482;-62
2021/09/09 04:16:52;;;;;;;21.07;19.17;;;17.60;99.90;;;;;;5035347;28;20934;-62
2021/09/09 04:19:23;;;;;;;22.50;20.10;;;17.60;99.90;;;;;;5035169;28;20514;-62
2021/09/09 04:21:50;;;;;;;21.53;19.63;;;17.60;99.90;;;;;;5035145;28;20840;-63
2021/09/09 04:24:16;;;;;;;22.87;20.27;;;17.70;99.90;;;;;;5035525;28;20467;-63
2021/09/09 04:26:43;;;;;;;23.03;20.40;;;17.60;99.90;;;;;;5035383;28;20456;-63
2021/09/09 04:29:10;;;;;;;20.17;18.30;;;17.70;99.90;;;;;;5035329;28;20436;-63
2021/09/09 04:31:37;;;;;;;21.60;19.60;;;17.70;99.90;;;;;;5035967;28;20480;-63
2021/09/09 04:34:03;;;;;;;20.97;19.10;;;17.70;99.90;;;;;;5035338;28;20542;-63
2021/09/09 04:36:32;;;;;;;21.77;19.47;;;17.70;99.90;;;;;;5035009;28;20448;-61
2021/09/09 04:38:59;;;;;;;22.60;20.60;;;17.70;99.90;;;;;;5035020;28;20943;-63
2021/09/09 04:41:26;;;;;;;21.77;19.57;;;17.70;99.90;;;;;;5036160;28;20479;-62
2021/09/09 04:43:52;;;;;;;21.30;19.40;;;17.70;99.90;;;;;;5035216;28;20459;-62
2021/09/09 04:46:19;;;;;;;20.60;18.60;;;17.70;99.90;;;;;;5035020;28;20451;-62
2021/09/09 04:48:46;;;;;;;19.73;18.03;;;17.80;99.90;;;;;;5035054;28;20474;-62
2021/09/09 04:51:13;;;;;;;21.00;18.73;;;17.80;99.90;;;;;;5034857;28;20475;-62
2021/09/09 04:53:41;;;;;;;19.47;17.60;;;17.80;99.90;;;;;;5034822;28;20476;-62
2021/09/09 04:56:07;;;;;;;18.97;17.00;;;17.80;99.90;;;;;;5034787;28;20796;-62
2021/09/09 04:58:34;;;;;;;19.20;17.50;;;17.80;99.90;;;;;;5034408;28;20965;-63
2021/09/09 05:01:01;;;;;;;19.43;17.33;;;17.80;99.90;;;;;;5034296;28;20891;-63
2021/09/09 05:03:27;;;;;;;20.20;18.30;;;17.70;99.90;;;;;;5035137;28;20506;-63
2021/09/09 05:05:54;;;;;;;20.53;18.40;;;17.70;99.90;;;;;;5034888;28;20444;-63
2021/09/09 05:08:21;;;;;;;19.47;17.43;;;17.70;99.90;;;;;;5035164;28;20460;-63
2021/09/09 05:10:49;;;;;;;18.63;16.77;;;17.70;99.90;;;;;;5034902;28;20472;-63
2021/09/09 05:13:16;;;;;;;18.43;16.80;;;17.70;99.90;;;;;;5034511;28;20459;-63
2021/09/09 05:15:42;;;;;;;18.60;16.70;;;17.70;99.90;;;;;;5034398;28;20475;-62
2021/09/09 05:18:09;;;;;;;18.80;17.13;;;17.70;99.90;;;;;;5035422;28;20452;-62
2021/09/09 05:20:36;;;;;;;17.77;16.03;;;17.60;99.90;;;;;;5034985;28;20479;-63
2021/09/09 05:23:03;;;;;;;18.03;16.23;;;17.60;99.90;;;;;;5034944;28;20444;-64
2021/09/09 05:25:29;;;;;;;20.23;17.83;;;17.60;99.90;;;;;;5034885;28;20456;-65
2021/09/09 05:27:57;;;;;;;20.93;19.17;;;17.60;99.90;;;;;;5034138;28;20448;-65
2021/09/09 05:30:24;;;;;;;18.87;17.20;;;17.60;99.90;;;;;;5034082;28;20451;-64
2021/09/09 05:32:51;;;;;;;20.63;17.90;;;17.70;99.90;;;;;;5034099;28;20815;-64
2021/09/09 05:35:18;;;;;;;20.87;18.70;;;17.80;99.90;;;;;;5034508;28;20479;-64
2021/09/09 05:37:44;;;;;;;20.23;18.17;;;17.80;99.90;;;;;;5034644;28;20488;-64
2021/09/09 05:40:12;;;;;;;17.93;16.40;;;17.90;99.90;;;;;;5034025;28;20459;-65
2021/09/09 05:42:39;;;;;;;18.57;16.83;;;18.00;99.90;;;;;;5034435;28;20452;-64
2021/09/09 05:45:08;;;;;;;18.43;16.93;;;18.10;99.90;;;;;;5034354;28;20448;-67
2021/09/09 05:47:35;;;;;;;17.10;15.37;;;18.30;99.90;;;;;;5034084;28;20873;-64
2021/09/09 05:50:02;;;;;;;17.77;16.07;;;18.50;99.90;;;;;;5034266;28;20573;-66
2021/09/09 05:52:28;;;;;;;16.27;14.73;;;18.80;99.90;;;;;;5033646;28;20491;-65
2021/09/09 05:54:55;;;;;;;14.70;13.37;;;19.00;99.90;;;;;;5034141;28;20475;-65
2021/09/09 05:57:22;;;;;;;16.10;14.50;;;19.40;99.90;;;;;;5034410;28;20463;-65
2021/09/09 05:59:48;;;;;;;16.00;14.60;;;19.60;99.90;;;;;;5034398;28;20468;-65
2021/09/09 06:02:18;;;;;;;15.60;14.23;;;20.00;99.90;;;;;;5033836;28;20491;-64
2021/09/09 06:04:46;;;;;;;14.43;13.23;;;20.30;99.90;;;;;;5034369;28;20437;-64
2021/09/09 06:07:13;;;;;;;14.93;13.43;;;20.70;99.90;;;;;;5034324;28;20455;-64
2021/09/09 06:09:41;;;;;;;14.80;13.63;;;21.10;99.90;;;;;;5034508;28;20483;-64
2021/09/09 06:12:08;;;;;;;14.40;13.03;;;21.50;99.90;;;;;;5034675;28;20994;-64
2021/09/09 06:14:35;;;;;;;12.93;11.83;;;22.00;99.90;;;;;;5034167;28;20471;-64
2021/09/09 06:17:02;;;;;;;13.70;12.50;;;22.30;99.90;;;;;;5034013;28;20448;-65
2021/09/09 06:19:30;;;;;;;13.63;12.30;;;22.50;99.90;;;;;;5034452;28;20460;-66
2021/09/09 06:21:58;;;;;;;14.27;13.10;;;22.60;99.90;;;;;;5034262;28;20833;-65
2021/09/09 06:24:25;;;;;;;15.73;12.00;;;22.60;99.90;;;;;;5033485;28;20930;-66
2021/09/09 06:26:52;;;;;;;13.40;12.10;;;22.60;99.90;;;;;;5034269;28;20460;-65
2021/09/09 06:29:18;;;;;;;13.80;12.70;;;22.70;99.90;;;;;;5034272;28;20478;-66
2021/09/09 06:31:45;;;;;;;13.13;11.97;;;23.10;99.90;;;;;;5033606;28;20475;-66
2021/09/09 06:34:12;;;;;;;13.93;12.70;;;23.60;99.90;;;;;;5033664;28;20476;-66
2021/09/09 06:36:40;;;;;;;13.50;12.20;;;24.30;99.90;;;;;;5033579;28;20451;-66
2021/09/09 06:39:07;;;;;;;13.23;12.13;;;25.00;99.90;;;;;;5033584;28;20856;-66
2021/09/09 06:41:33;;;;;;;13.10;11.77;;;25.50;99.90;;;;;;5033743;28;20476;-66
2021/09/09 06:44:00;;;;;;;13.00;11.93;;;26.00;99.90;;;;;;5036111;28;20479;-66
2021/09/09 06:46:27;;;;;;;16.03;12.50;;;26.40;99.90;;;;;;5038380;28;20456;-66
2021/09/09 06:48:53;;;;;;;12.87;11.77;;;26.70;99.90;;;;;;5037168;28;20459;-66
2021/09/09 06:51:21;;;;;;;13.00;11.77;;;27.20;99.90;;;;;;5036604;28;20467;-66
2021/09/09 06:53:50;;;;;;;12.60;11.50;;;27.70;99.90;;;;;;5037082;28;20506;-66
2021/09/09 06:56:16;;;;;;;12.50;11.50;;;28.10;99.90;;;;;;5036806;28;20476;-66
2021/09/09 06:58:43;;;;;;;12.67;11.37;;;28.50;99.90;;;;;;5036778;28;20970;-66
2021/09/09 07:01:10;;;;;;;12.47;11.23;;;28.70;99.90;;;;;;5036706;28;20526;-66
2021/09/09 07:03:36;;;;;;;13.40;12.20;;;28.90;99.90;;;;;;5036809;28;20459;-66
2021/09/09 07:06:03;;;;;;;12.53;11.40;;;29.10;99.90;;;;;;5036341;28;20932;-66
2021/09/09 07:08:30;;;;;;;12.70;11.50;;;29.30;99.90;;;;;;5036904;28;20463;-66
2021/09/09 07:10:58;;;;;;;12.87;11.60;;;29.30;99.10;;;;;;5036919;28;20482;-66
2021/09/09 07:13:28;;;;;;;12.33;11.10;;;29.60;98.40;;;;;;5036696;28;20467;-66
2021/09/09 07:15:55;;;;;;;13.50;10.67;;;29.80;97.20;;;;;;5038169;28;20467;-66
2021/09/09 07:18:22;;;;;;;12.00;10.93;;;29.70;96.50;;;;;;5041875;28;20451;-66
2021/09/09 07:20:49;;;;;;;12.33;11.07;;;29.90;96.00;;;;;;5041157;28;20476;-66
2021/09/09 07:23:15;;;;;;;13.70;12.17;;;30.30;95.20;;;;;;5036638;28;20816;-66
2021/09/09 07:25:43;;;;;;;14.30;11.57;;;30.40;94.60;;;;;;5036887;28;20455;-66
2021/09/09 07:28:11;;;;;;;13.53;12.00;;;30.60;94.10;;;;;;5036319;28;20824;-66
2021/09/09 07:30:37;;;;;;;15.97;11.50;;;31.00;93.60;;;;;;5036350;28;20475;-66
2021/09/09 07:33:04;;;;;;;13.30;10.97;;;31.40;92.10;;;;;;5036749;28;20452;-67
2021/09/09 07:35:31;;;;;;;10.73;9.80;;;32.00;91.50;;;;;;5036622;28;20475;-67
2021/09/09 07:37:58;;;;;;;10.70;9.80;;;32.30;89.50;;;;;;5036257;28;20459;-67
2021/09/09 07:40:25;;;;;;;10.70;9.73;;;32.60;87.60;;;;;;5036189;28;20463;-66
2021/09/09 07:42:52;;;;;;;11.33;9.83;;;33.10;87.60;;;;;;5036458;28;20443;-67
2021/09/09 07:45:20;;;;;;;11.87;10.67;;;33.30;84.50;;;;;;5036501;28;20807;-67
2021/09/09 07:47:46;;;;;;;9.63;8.83;;;33.80;82.70;;;;;;5036692;28;20483;-67
2021/09/09 07:50:13;;;;;;;10.53;9.73;;;33.60;80.20;;;;;;5036274;28;20455;-66
2021/09/09 07:52:41;;;;;;;10.60;9.50;;;33.80;78.10;;;;;;5036049;28;20461;-66
2021/09/09 07:55:09;;;;;;;10.40;9.50;;;33.10;78.00;;;;;;5035627;28;20522;-66
2021/09/09 07:57:36;;;;;;;13.47;10.37;;;33.10;79.10;;;;;;5035834;28;20460;-66
2021/09/09 08:00:04;;;;;;;10.07;9.27;;;31.90;81.60;;;;;;5036103;28;20946;-66
2021/09/09 08:02:32;;;;;;;9.93;8.97;;;32.50;81.90;;;;;;5035645;28;20510;-66
2021/09/09 08:04:59;;;;;;;9.70;8.83;;;33.10;79.10;;;;;;5035921;28;20459;-67
2021/09/09 08:07:26;;;;;;;10.40;9.60;;;33.10;77.10;;;;;;5035451;28;20459;-67
2021/09/09 08:09:52;;;;;;;10.50;9.63;;;33.20;78.20;;;;;;5036095;28;20463;-67
2021/09/09 08:12:19;;;;;;;11.00;9.73;;;33.50;77.80;;;;;;5035404;28;21002;-67
2021/09/09 08:14:46;;;;;;;11.03;9.70;;;33.80;75.40;;;;;;5035497;28;20482;-67
2021/09/09 08:17:14;;;;;;;12.63;10.10;;;34.30;75.10;;;;;;5035309;28;20458;-67
2021/09/09 08:19:42;;;;;;;9.97;9.10;;;34.70;74.80;;;;;;5035479;28;20456;-67
2021/09/09 08:22:09;;;;;;;14.97;9.70;;;34.50;73.20;;;;;;5035624;28;20474;-67
2021/09/09 08:24:35;;;;;;;11.27;10.17;;;34.20;74.50;;;;;;5035198;28;20836;-67
2021/09/09 08:27:02;;;;;;;11.23;10.13;;;33.70;74.00;;;;;;5035430;28;20454;-67
2021/09/09 08:29:29;;;;;;;12.00;10.83;;;33.30;76.50;;;;;;5035903;28;20459;-67
2021/09/09 08:31:56;;;;;;;11.13;10.03;;;32.70;77.20;;;;;;5034960;28;20990;-67
2021/09/09 08:34:22;;;;;;;10.77;9.67;;;33.20;76.40;;;;;;5035149;28;20458;-67
2021/09/09 08:36:51;;;;;;;10.50;9.60;;;32.80;77.00;;;;;;5034642;28;20456;-67
2021/09/09 08:39:17;;;;;;;9.20;8.30;;;32.90;76.30;;;;;;5034845;28;20462;-67
2021/09/09 08:41:44;;;;;;;9.63;8.73;;;32.90;77.60;;;;;;5034417;28;20841;-67
2021/09/09 08:44:11;;;;;;;11.00;9.90;;;32.20;75.20;;;;;;5035164;28;20455;-67
2021/09/09 08:46:38;;;;;;;11.27;9.43;;;32.40;76.90;;;;;;5034769;28;20433;-67
2021/09/09 08:49:05;;;;;;;9.60;8.80;;;32.40;76.80;;;;;;5035143;28;20456;-67
2021/09/09 08:51:32;;;;;;;11.03;9.30;;;32.00;78.30;;;;;;5035128;28;20483;-67
2021/09/09 08:54:02;;;;;;;14.20;11.70;;;31.80;80.50;;;;;;5034942;28;20459;-67
2021/09/09 08:56:28;;;;;;;11.23;9.07;;;31.40;79.90;;;;;;5034571;28;20793;-68
2021/09/09 08:58:55;;;;;;;11.77;9.80;;;31.60;78.10;;;;;;5034888;28;20460;-67
2021/09/09 09:01:22;;;;;;;13.00;10.03;;;32.00;78.60;;;;;;5034779;28;20487;-67
2021/09/09 09:03:51;;;;;;;10.97;9.93;;;32.70;77.90;;;;;;5034441;28;21022;-67
2021/09/09 09:06:38;;;;;;;10.07;9.07;;;33.60;75.70;;;;;;5034070;28;20445;-67
2021/09/09 09:09:13;;;;;;;10.70;9.30;;;34.30;71.90;;;;;;5028804;28;20456;-68
2021/09/09 09:11:43;;;;;;;8.07;7.47;;;34.70;71.80;;;;;;5034914;28;20503;-68
2021/09/09 09:14:11;;;;;;;8.93;8.07;;;35.30;68.60;;;;;;5034686;28;20444;-68
2021/09/09 09:16:43;;;;;;;7.00;6.47;;;35.80;66.60;;;;;;5035252;28;20485;-68
2021/09/09 09:19:10;;;;;;;8.23;6.70;;;36.10;62.70;;;;;;5035019;28;20508;-68
2021/09/09 09:21:41;;;;;;;7.23;6.63;;;36.50;60.70;;;;;;5034918;28;20482;-69
2021/09/09 09:24:09;;;;;;;6.73;6.23;;;37.20;60.00;;;;;;5035022;28;20447;-68
2021/09/09 09:26:37;;;;;;;8.97;6.20;;;37.70;57.80;;;;;;5035150;28;20433;-67
2021/09/09 09:29:04;;;;;;;7.90;6.27;;;37.90;58.10;;;;;;5034519;28;20961;-67
2021/09/09 09:31:33;;;;;;;7.77;6.90;;;37.50;57.10;;;;;;5034764;28;20467;-68
2021/09/09 09:34:02;;;;;;;6.93;6.43;;;37.90;56.50;;;;;;5035442;28;20483;-67
2021/09/09 09:36:30;;;;;;;6.83;6.27;;;38.20;56.20;;;;;;5034560;28;20498;-67
2021/09/09 09:39:06;;;;;;;7.17;6.67;;;39.00;55.60;;;;;;5035401;28;20454;-68
2021/09/09 09:41:34;;;;;;;9.70;6.73;;;39.50;55.40;;;;;;5034950;28;20471;-67
2021/09/09 09:44:04;;;;;;;7.20;6.13;;;40.10;53.60;;;;;;5034443;28;20907;-68
2021/09/09 09:46:33;;;;;;;9.63;6.43;;;40.50;54.30;;;;;;5034906;28;20266;-68
2021/09/09 09:49:25;;;;;;;6.73;6.23;;;40.80;55.00;;;;;;5034588;28;20204;-68
2021/09/09 09:51:55;;;;;;;7.13;6.23;;;41.00;52.40;;;;;;5034865;28;20593;-67
2021/09/09 09:54:24;;;;;;;6.55;5.95;;;41.00;52.60;;;;;;5034391;28;20651;-68
2021/09/09 09:56:53;;;;;;;7.07;6.65;;;41.40;50.60;;;;;;5034208;28;20223;-68
2021/09/09 09:59:21;;;;;;;7.28;6.78;;;41.30;48.50;;;;;;5034371;28;20197;-68
2021/09/09 10:01:48;;;;;;;7.60;6.25;;;40.90;51.40;;;;;;5034191;28;20232;-67
2021/09/09 10:04:16;;;;;;;6.40;6.10;;;41.10;49.00;;;;;;5034544;28;20197;-67
2021/09/09 10:06:44;;;;;;;7.35;6.72;;;41.40;48.80;;;;;;5034483;28;20683;-68
2021/09/09 10:09:12;;;;;;;9.70;6.67;;;41.00;48.40;;;;;;5034804;28;20201;-68
2021/09/09 10:11:40;;;;;;;7.83;7.20;;;39.80;49.00;;;;;;5034932;28;20217;-67
2021/09/09 10:14:09;;;;;;;7.40;6.70;;;39.80;49.70;;;;;;5034363;28;20668;-68
2021/09/09 10:16:39;;;;;;;7.00;6.60;;;39.80;52.40;;;;;;5034026;28;20817;-67
2021/09/09 10:19:10;;;;;;;6.40;6.00;;;40.00;51.10;;;;;;5036138;28;20204;-67
2021/09/09 10:21:40;;;;;;;6.60;6.00;;;39.90;49.50;;;;;;5037955;28;20228;-67
2021/09/09 10:24:09;;;;;;;10.30;5.93;;;39.40;49.00;;;;;;5045171;28;20181;-67
2021/09/09 10:26:36;;;;;;;6.70;6.20;;;39.60;49.70;;;;;;5053597;28;20227;-68
2021/09/09 10:29:02;;;;;;;7.03;6.27;;;39.40;50.60;;;;;;5055337;28;20192;-67
2021/09/09 10:31:58;;;;;;;6.87;6.37;;;39.00;50.90;;;;;;5054903;28;20471;-67
2021/09/09 10:34:25;;;;;;;6.97;6.57;;;38.70;51.30;;;;;;5039209;28;20462;-67
2021/09/09 10:36:52;;;;;;;7.17;6.57;;;39.00;51.80;;;;;;5039876;28;20471;-68
2021/09/09 10:39:21;;;;;;;6.10;5.70;;;39.10;51.40;;;;;;5038977;28;20447;-68
2021/09/09 10:41:48;;;;;;;6.50;6.00;;;39.50;52.40;;;;;;5038430;28;20474;-68
2021/09/09 10:44:16;;;;;;;6.73;6.13;;;39.70;50.80;;;;;;5038478;28;20200;-68
2021/09/09 10:46:47;;;;;;;7.80;7.20;;;39.10;53.30;;;;;;5037541;28;20201;-68
2021/09/09 10:49:21;;;;;;;8.13;7.43;;;38.30;54.90;;;;;;5037613;28;20439;-68
2021/09/09 10:52:05;;;;;;;7.70;7.07;;;36.80;55.70;;;;;;5037464;28;20487;-67
2021/09/09 10:54:34;;;;;;;7.53;6.77;;;36.10;56.20;;;;;;5038014;28;20500;-68
2021/09/09 10:57:14;;;;;;;7.03;6.53;;;35.70;56.60;;;;;;5037098;28;20492;-67
2021/09/09 10:59:48;;;;;;;7.43;6.90;;;34.90;58.20;;;;;;5037184;28;20444;-67
2021/09/09 11:02:17;;;;;;;8.03;7.33;;;34.60;58.90;;;;;;5036559;28;20486;-67
2021/09/09 11:04:45;;;;;;;7.67;7.07;;;34.10;59.40;;;;;;5036916;28;20461;-67
2021/09/09 11:07:22;;;;;;;8.43;7.77;;;33.70;59.70;;;;;;5036643;28;20458;-67
2021/09/09 11:09:58;;;;;;;7.90;7.20;;;33.30;61.20;;;;;;5036339;28;20939;-65
2021/09/09 11:12:25;;;;;;;8.77;7.90;;;32.60;64.90;;;;;;5036806;28;20503;-66
2021/09/09 11:14:52;;;;;;;8.83;7.33;;;32.40;66.10;;;;;;5036576;28;20933;-66
2021/09/09 11:17:20;;;;;;;7.50;6.80;;;32.30;66.90;;;;;;5036712;28;20504;-66
2021/09/09 11:19:47;;;;;;;7.63;7.00;;;33.10;67.20;;;;;;5037001;28;20457;-66
2021/09/09 11:22:21;;;;;;;6.53;6.03;;;33.30;64.50;;;;;;5036208;28;20473;-66
2021/09/09 11:24:48;;;;;;;8.43;6.77;;;33.80;62.90;;;;;;5036789;28;20445;-66
2021/09/09 11:27:14;;;;;;;10.13;7.23;;;33.90;62.70;;;;;;5036439;28;20477;-67
2021/09/09 11:29:42;;;;;;;8.10;7.30;;;33.80;64.00;;;;;;5035856;28;20453;-67
2021/09/09 11:32:09;;;;;;;7.37;6.70;;;33.70;59.10;;;;;;5036177;28;20821;-66
2021/09/09 11:34:37;;;;;;;7.50;6.83;;;34.10;60.00;;;;;;5036186;28;20489;-66
2021/09/09 11:37:05;;;;;;;13.83;6.83;;;34.50;59.70;;;;;;5036154;28;20482;-66
2021/09/09 11:39:35;;;;;;;8.20;6.70;;;34.60;59.50;;;;;;5037410;28;20460;-67
2021/09/09 11:42:04;;;;;;;7.33;6.80;;;34.30;58.50;;;;;;5037802;28;20818;-67
2021/09/09 11:44:33;;;;;;;7.67;6.87;;;34.40;63.20;;;;;;5036250;28;20513;-67
2021/09/09 11:47:01;;;;;;;8.07;7.17;;;34.60;61.30;;;;;;5036051;28;20456;-67
2021/09/09 11:49:30;;;;;;;7.80;7.30;;;34.30;59.40;;;;;;5036220;28;20457;-67
2021/09/09 11:51:59;;;;;;;6.70;6.30;;;33.90;62.60;;;;;;5036105;28;20473;-67
2021/09/09 11:54:28;;;;;;;7.87;6.87;;;34.10;59.80;;;;;;5036303;28;20451;-67
2021/09/09 11:57:04;;;;;;;7.40;6.80;;;34.10;59.70;;;;;;5036153;28;20842;-67
2021/09/09 11:59:32;;;;;;;7.43;6.83;;;34.20;60.40;;;;;;5035785;28;20909;-68
2021/09/09 12:02:05;;;;;;;6.47;5.93;;;34.00;61.30;;;;;;5035551;28;20479;-67
2021/09/09 12:04:33;;;;;;;8.87;6.67;;;33.70;62.50;;;;;;5035867;28;20462;-67
2021/09/09 12:07:02;;;;;;;8.50;6.57;;;33.30;61.50;;;;;;5036760;28;20448;-67
2021/09/09 12:09:33;;;;;;;6.90;6.40;;;33.20;60.80;;;;;;5036433;28;20453;-66
2021/09/09 12:12:04;;;;;;;9.77;6.53;;;33.20;62.30;;;;;;5036209;28;20969;-66
2021/09/09 12:14:31;;;;;;;7.70;7.10;;;32.80;62.30;;;;;;5036287;28;20438;-66
2021/09/09 12:17:11;;;;;;;7.73;7.00;;;32.60;67.10;;;;;;5036021;28;20476;-67
2021/09/09 12:20:09;;;;;;;7.73;7.20;;;32.70;67.20;;;;;;5035817;28;20441;-67
2021/09/09 12:22:48;;;;;;;9.30;7.17;;;32.10;64.70;;;;;;4955432;28;20475;-66
2021/09/09 12:25:21;;;;;;;7.57;6.93;;;32.00;65.90;;;;;;5024119;28;20455;-66
2021/09/09 12:27:59;;;;;;;7.80;7.10;;;31.80;66.50;;;;;;5035459;28;20925;-67
2021/09/09 12:30:27;;;;;;;8.13;7.33;;;31.70;65.70;;;;;;5035798;28;20440;-66
2021/09/09 12:32:54;;;;;;;7.83;7.13;;;31.40;68.80;;;;;;5036103;28;20477;-66
2021/09/09 12:35:22;;;;;;;7.50;6.80;;;31.30;71.30;;;;;;5035399;28;20861;-66
2021/09/09 12:38:05;;;;;;;10.33;7.87;;;31.30;72.90;;;;;;5035514;28;20463;-66
2021/09/09 12:40:44;;;;;;;7.47;6.87;;;31.00;78.60;;;;;;5035331;28;20436;-66
2021/09/09 12:43:26;;;;;;;6.97;6.37;;;31.00;74.60;;;;;;5034587;28;20837;-64
2021/09/09 12:45:54;;;;;;;7.63;7.10;;;30.80;71.30;;;;;;5035089;28;20448;-66
2021/09/09 12:48:21;;;;;;;8.33;7.63;;;30.70;78.60;;;;;;5035500;28;20455;-66
2021/09/09 12:50:54;;;;;;;7.80;7.10;;;30.70;72.40;;;;;;5035440;28;20465;-66
2021/09/09 12:53:22;;;;;;;8.17;7.47;;;30.60;74.70;;;;;;5035426;28;20797;-66
2021/09/09 12:55:49;;;;;;;7.10;6.40;;;30.50;75.00;;;;;;5034953;28;20452;-66
2021/09/09 12:58:16;;;;;;;8.00;7.00;;;30.40;77.00;;;;;;5035343;28;20464;-66
2021/09/09 13:00:43;;;;;;;8.40;7.60;;;30.10;73.90;;;;;;5034918;28;20488;-66
2021/09/09 13:03:10;;;;;;;6.90;6.50;;;30.00;76.20;;;;;;5035222;28;20803;-66
2021/09/09 13:05:36;;;;;;;7.90;7.10;;;29.80;77.60;;;;;;5034907;28;20837;-66
2021/09/09 13:08:03;;;;;;;6.60;6.10;;;29.70;74.50;;;;;;5034892;28;20455;-66
2021/09/09 13:10:31;;;;;;;5.63;4.90;;;29.60;77.40;;;;;;5034730;28;20456;-65
2021/09/09 13:12:58;;;;;;;6.50;5.23;;;29.50;78.10;;;;;;5034745;28;20451;-66
2021/09/09 13:15:25;;;;;;;5.57;5.00;;;29.40;79.80;;;;;;5034324;28;20458;-67
2021/09/09 13:17:52;;;;;;;6.27;5.07;;;29.40;78.00;;;;;;5035370;28;20464;-66
2021/09/09 13:20:20;;;;;;;8.03;4.67;;;29.70;82.30;;;;;;5034748;28;20456;-64
2021/09/09 13:22:47;;;;;;;4.87;4.43;;;30.20;81.10;;;;;;5035289;28;20486;-66
2021/09/09 13:25:14;;;;;;;5.67;5.17;;;30.50;78.00;;;;;;5035720;28;20458;-67
2021/09/09 13:27:42;;;;;;;5.57;5.17;;;31.00;79.00;;;;;;5035223;28;20818;-67
2021/09/09 13:30:10;;;;;;;5.23;4.93;;;31.50;74.50;;;;;;5034546;28;20513;-67
2021/09/09 13:32:36;;;;;;;5.13;4.73;;;31.60;74.10;;;;;;5035250;28;20479;-67
2021/09/09 13:35:04;;;;;;;6.30;5.70;;;31.40;76.20;;;;;;5035235;28;20816;-66
2021/09/09 13:37:30;;;;;;;7.33;5.30;;;31.40;71.50;;;;;;5035259;28;20891;-65
2021/09/09 13:39:57;;;;;;;4.97;4.67;;;31.40;74.30;;;;;;5035090;28;20455;-66
2021/09/09 13:42:24;;;;;;;6.50;4.90;;;31.40;74.80;;;;;;5034636;28;20974;-67
2021/09/09 13:44:52;;;;;;;7.60;5.10;;;31.30;74.70;;;;;;5034794;28;20458;-66
2021/09/09 13:47:18;;;;;;;7.67;5.47;;;30.80;73.50;;;;;;5034632;28;20444;-66
2021/09/09 13:49:45;;;;;;;6.13;5.50;;;30.80;75.20;;;;;;5034807;28;20466;-65
2021/09/09 13:52:12;;;;;;;6.57;6.07;;;30.60;76.40;;;;;;5034360;28;20471;-65
2021/09/09 13:54:39;;;;;;;5.40;4.90;;;30.40;78.00;;;;;;5037402;28;20977;-66
2021/09/09 13:57:06;;;;;;;5.47;5.07;;;30.50;81.90;;;;;;5042025;28;20545;-66
2021/09/09 13:59:34;;;;;;;6.67;5.93;;;30.50;77.20;;;;;;5043787;28;20462;-66
2021/09/09 14:02:02;;;;;;;9.60;5.87;;;30.60;78.80;;;;;;5039712;28;20534;-65
2021/09/09 14:04:29;;;;;;;6.40;5.80;;;30.90;77.10;;;;;;5038319;28;20509;-66
2021/09/09 14:06:55;;;;;;;6.47;4.80;;;31.20;77.20;;;;;;5039340;28;20444;-67
2021/09/09 14:09:22;;;;;;;5.40;5.00;;;31.30;76.30;;;;;;5038360;28;20462;-67
2021/09/09 14:11:49;;;;;;;5.23;4.77;;;31.30;75.40;;;;;;5038580;28;20478;-67
2021/09/09 14:14:16;;;;;;;5.17;4.70;;;31.40;76.30;;;;;;5038114;28;20447;-67
2021/09/09 14:16:42;;;;;;;19.57;17.57;;;31.30;76.40;;;;;;5038813;28;20490;-65
2021/09/09 14:19:10;;;;;;;9.27;5.60;;;31.20;75.60;;;;;;5037868;28;20451;-66
2021/09/09 14:21:38;;;;;;;8.63;5.80;;;31.20;75.40;;;;;;5037913;28;21019;-66
2021/09/09 14:24:06;;;;;;;6.73;5.90;;;31.40;74.00;;;;;;5037434;28;20471;-66
2021/09/09 14:26:33;;;;;;;6.13;5.63;;;31.40;74.00;;;;;;5037458;28;20959;-67
2021/09/09 14:29:00;;;;;;;7.83;5.47;;;31.30;73.80;;;;;;5037681;28;20830;-67
2021/09/09 14:31:27;;;;;;;6.20;5.70;;;31.30;73.30;;;;;;5037671;28;20474;-67
2021/09/09 14:33:53;;;;;;;6.00;5.33;;;31.30;74.90;;;;;;5037281;28;20456;-67
2021/09/09 14:36:21;;;;;;;5.60;5.20;;;31.40;74.90;;;;;;5037129;28;20961;-67
2021/09/09 14:38:48;;;;;;;6.50;5.90;;;31.50;75.30;;;;;;5038151;28;20455;-66
2021/09/09 14:41:15;;;;;;;6.47;5.17;;;31.70;75.80;;;;;;5037458;28;21002;-67
2021/09/09 14:43:42;;;;;;;6.67;5.97;;;31.80;73.90;;;;;;5037710;28;20463;-66
2021/09/09 14:46:10;;;;;;;5.70;5.20;;;31.90;71.00;;;;;;5037150;28;20954;-66
2021/09/09 14:48:37;;;;;;;5.97;5.20;;;31.80;71.00;;;;;;5037253;28;20452;-66
2021/09/09 14:51:04;;;;;;;5.60;5.20;;;32.00;73.30;;;;;;5037110;28;20475;-67
2021/09/09 14:53:32;;;;;;;5.33;4.83;;;32.00;72.50;;;;;;5036560;28;20456;-67
2021/09/09 14:55:59;;;;;;;6.67;5.57;;;32.00;73.10;;;;;;5036935;28;20456;-66
2021/09/09 14:58:26;;;;;;;5.23;4.93;;;31.60;70.90;;;;;;5037809;28;20479;-66
2021/09/09 15:00:53;;;;;;;10.93;6.30;;;31.20;71.30;;;;;;5039460;28;20476;-66
2021/09/09 15:03:21;;;;;;;5.20;4.80;;;31.00;71.40;;;;;;5037170;28;20436;-66
2021/09/09 15:05:47;;;;;;;6.37;4.47;;;30.50;71.70;;;;;;5035730;28;20462;-66
2021/09/09 15:08:14;;;;;;;5.33;4.83;;;30.30;73.30;;;;;;5037043;28;20766;-66
2021/09/09 15:10:42;;;;;;;5.20;4.70;;;30.00;74.40;;;;;;5036908;28;20476;-66
2021/09/09 15:13:10;;;;;;;4.97;4.40;;;29.70;72.90;;;;;;5036987;28;20478;-66
2021/09/09 15:15:38;;;;;;;5.40;5.00;;;29.40;73.20;;;;;;5036725;28;20456;-67
2021/09/09 15:18:04;;;;;;;5.17;4.77;;;29.30;73.60;;;;;;5036662;28;20872;-66
2021/09/09 15:20:31;;;;;;;5.30;4.80;;;29.00;74.70;;;;;;5036569;28;20448;-66
2021/09/09 15:22:58;;;;;;;5.77;4.73;;;28.80;75.30;;;;;;5036278;28;20448;-67
2021/09/09 15:25:25;;;;;;;6.20;5.70;;;28.60;75.00;;;;;;5037036;28;20817;-67
2021/09/09 15:27:53;;;;;;;6.13;5.23;;;28.40;76.50;;;;;;5036519;28;20452;-66
2021/09/09 15:30:19;;;;;;;5.80;5.30;;;28.20;76.20;;;;;;5036169;28;20474;-66
2021/09/09 15:32:46;;;;;;;5.77;5.37;;;28.00;76.50;;;;;;5036148;28;20448;-66
2021/09/09 15:35:15;;;;;;;42.47;21.97;;;27.80;76.70;;;;;;5035886;28;20930;-66
2021/09/09 15:37:42;;;;;;;8.37;7.47;;;27.80;77.50;;;;;;5037094;28;20871;-66
2021/09/09 15:40:10;;;;;;;38.43;19.30;;;27.70;78.20;;;;;;5036350;28;20459;-66
2021/09/09 15:42:37;;;;;;;12.47;9.07;;;27.70;78.90;;;;;;5037653;28;20472;-66
2021/09/09 15:45:07;;;;;;;65.97;28.27;;;27.70;78.00;;;;;;5037145;28;20452;-66
2021/09/09 15:47:34;;;;;;;60.97;35.20;;;27.70;77.60;;;;;;5035818;28;20466;-66
2021/09/09 15:50:00;;;;;;;10.60;8.10;;;27.80;78.40;;;;;;5035800;28;20452;-67
2021/09/09 15:52:27;;;;;;;9.10;6.30;;;27.80;77.40;;;;;;5035887;28;20479;-65
2021/09/09 15:54:54;;;;;;;6.33;5.80;;;27.80;76.80;;;;;;5035899;28;20456;-66
2021/09/09 15:57:21;;;;;;;6.13;5.63;;;27.80;77.30;;;;;;5035856;28;20475;-66
2021/09/09 15:59:47;;;;;;;8.70;5.43;;;27.80;77.30;;;;;;5036341;28;20459;-66
2021/09/09 16:02:15;;;;;;;6.80;6.30;;;27.70;77.40;;;;;;5035848;28;20844;-65
2021/09/09 16:04:42;;;;;;;6.87;6.20;;;27.60;79.30;;;;;;5036083;28;20443;-66
2021/09/09 16:07:09;;;;;;;5.77;5.27;;;27.50;78.80;;;;;;5035849;28;20448;-66
2021/09/09 16:09:36;;;;;;;6.37;5.90;;;27.50;78.60;;;;;;5035490;28;20809;-66
2021/09/09 16:12:04;;;;;;;6.03;5.33;;;27.40;78.00;;;;;;5035469;28;20472;-66
2021/09/09 16:14:31;;;;;;;7.30;6.27;;;27.40;78.10;;;;;;5035411;28;20448;-65
2021/09/09 16:16:58;;;;;;;8.83;5.10;;;27.30;78.90;;;;;;5035313;28;20459;-65
2021/09/09 16:19:26;;;;;;;6.37;5.77;;;27.20;79.70;;;;;;5035452;28;20479;-66
2021/09/09 16:21:53;;;;;;;10.30;5.97;;;27.20;78.30;;;;;;5035052;28;21050;-66
2021/09/09 16:24:20;;;;;;;6.30;5.80;;;27.10;78.00;;;;;;5036021;28;20563;-66
2021/09/09 16:26:46;;;;;;;6.77;6.17;;;27.00;78.20;;;;;;5035066;28;20795;-66
2021/09/09 16:29:13;;;;;;;7.07;6.47;;;26.90;79.50;;;;;;5035827;28;20452;-67
2021/09/09 16:31:40;;;;;;;7.37;6.40;;;26.80;81.10;;;;;;5034912;28;20533;-67
2021/09/09 16:34:06;;;;;;;6.40;5.77;;;26.80;81.60;;;;;;5036136;28;20456;-65
2021/09/09 16:36:34;;;;;;;6.13;5.63;;;26.70;81.60;;;;;;5035122;28;20463;-66
2021/09/09 16:39:01;;;;;;;8.40;5.90;;;26.70;81.50;;;;;;5034491;28;20483;-65
2021/09/09 16:41:28;;;;;;;6.50;6.00;;;26.60;84.50;;;;;;5034926;28;20480;-65
2021/09/09 16:43:55;;;;;;;7.97;6.20;;;26.50;80.70;;;;;;5034576;28;20958;-65